createdAt,value
2024-02-19T00:01:55.344Z,0.12
2024-02-19T00:04:24.100Z,0.14
2024-02-19T00:06:53.188Z,0.16
2024-02-19T00:09:21.687Z,0.17
2024-02-19T00:11:50.177Z,0.15
2024-02-19T00:14:18.724Z,0.15
2024-02-19T00:16:48.442Z,0.12
2024-02-19T00:19:17.130Z,0.09
2024-02-19T00:21:45.683Z,0.10
2024-02-19T00:24:14.571Z,0.08
2024-02-19T00:26:43.149Z,0.07
2024-02-19T00:29:12.206Z,0.03
2024-02-19T00:31:40.606Z,0.00
2024-02-19T00:34:09.004Z,0.03
2024-02-19T00:36:37.444Z,0.09
2024-02-19T00:39:06.107Z,0.16
2024-02-19T00:41:34.393Z,0.23
2024-02-19T00:44:02.996Z,0.26
2024-02-19T00:46:31.429Z,0.25
2024-02-19T00:48:59.786Z,0.22
2024-02-19T00:51:28.292Z,0.22
2024-02-19T00:53:56.638Z,0.22
2024-02-19T00:56:24.931Z,0.24
2024-02-19T00:58:53.152Z,0.28
2024-02-19T01:01:21.505Z,0.28
2024-02-19T01:03:49.884Z,0.27
2024-02-19T01:06:18.404Z,0.23
2024-02-19T01:08:47.061Z,0.24
2024-02-19T01:11:15.427Z,0.25
2024-02-19T01:13:43.762Z,0.24
2024-02-19T01:16:12.118Z,0.21
2024-02-19T01:18:41.031Z,0.19
2024-02-19T01:21:09.390Z,0.19
2024-02-19T01:23:37.827Z,0.20
2024-02-19T01:26:06.123Z,0.21
2024-02-19T01:28:34.425Z,0.26
2024-02-19T01:31:02.896Z,0.22
2024-02-19T01:33:31.362Z,0.19
2024-02-19T01:35:59.954Z,0.21
2024-02-19T01:38:28.511Z,0.18
2024-02-19T01:40:56.905Z,0.18
2024-02-19T01:43:25.368Z,0.18
2024-02-19T01:45:54.264Z,0.21
2024-02-19T01:48:23.215Z,0.22
2024-02-19T01:50:52.065Z,0.28
2024-02-19T01:53:20.510Z,0.30
2024-02-19T01:55:49.729Z,0.33
2024-02-19T01:58:19.035Z,0.34
2024-02-19T02:00:49.658Z,0.33
2024-02-19T02:03:22.710Z,0.32
2024-02-19T02:05:51.414Z,0.29
2024-02-19T02:08:20.880Z,0.25
2024-02-19T02:10:49.311Z,0.24
2024-02-19T02:13:20.040Z,0.27
2024-02-19T02:15:48.549Z,0.30
2024-02-19T02:18:17.202Z,0.35
2024-02-19T02:20:46.135Z,0.37
2024-02-19T02:23:16.065Z,0.39
2024-02-19T02:25:44.445Z,0.39
2024-02-19T02:28:12.875Z,0.38
2024-02-19T02:30:41.511Z,0.29
2024-02-19T02:33:09.904Z,0.24
2024-02-19T02:35:38.469Z,0.23
2024-02-19T02:38:07.377Z,0.29
2024-02-19T02:40:36.936Z,0.36
2024-02-19T02:43:05.442Z,0.40
2024-02-19T02:45:34.094Z,0.39
2024-02-19T02:48:02.655Z,0.39
2024-02-19T02:50:31.023Z,0.39
2024-02-19T02:52:59.389Z,0.35
2024-02-19T02:55:27.912Z,0.30
2024-02-19T02:57:56.437Z,0.29
2024-02-19T03:00:24.850Z,0.29
2024-02-19T03:02:53.234Z,0.31
2024-02-19T03:05:21.714Z,0.33
2024-02-19T03:07:50.091Z,0.36
2024-02-19T03:10:19.004Z,0.36
2024-02-19T03:12:47.913Z,0.40
2024-02-19T03:15:16.249Z,0.42
2024-02-19T03:17:44.524Z,0.37
2024-02-19T03:20:14.862Z,0.33
2024-02-19T03:22:43.564Z,0.29
2024-02-19T03:25:12.180Z,0.27
2024-02-19T03:27:41.557Z,0.28
2024-02-19T03:30:10.993Z,0.29
2024-02-19T03:32:39.576Z,0.30
2024-02-19T03:35:08.520Z,0.31
2024-02-19T03:37:37.106Z,0.33
2024-02-19T03:40:08.161Z,0.30
2024-02-19T03:42:36.776Z,0.26
2024-02-19T03:45:09.096Z,0.23
2024-02-19T03:47:37.643Z,0.21
2024-02-19T03:50:06.567Z,0.22
2024-02-19T03:52:35.147Z,0.23
2024-02-19T03:55:04.124Z,0.28
2024-02-19T03:57:32.673Z,0.32
2024-02-19T04:00:01.138Z,0.28
2024-02-19T04:02:29.509Z,0.26
2024-02-19T04:04:58.014Z,0.23
2024-02-19T04:07:26.573Z,0.20
2024-02-19T04:09:55.048Z,0.14
2024-02-19T04:12:23.349Z,0.08
2024-02-19T04:14:51.709Z,0.07
2024-02-19T04:17:20.156Z,0.14
2024-02-19T04:19:48.740Z,0.21
2024-02-19T04:22:17.329Z,0.26
2024-02-19T04:24:45.857Z,0.21
2024-02-19T04:27:15.776Z,0.24
2024-02-19T04:29:44.062Z,0.25
2024-02-19T04:32:12.377Z,0.24
2024-02-19T04:34:41.182Z,0.24
2024-02-19T04:37:09.900Z,0.21
2024-02-19T04:39:38.481Z,0.19
2024-02-19T04:42:06.939Z,0.19
2024-02-19T04:44:35.279Z,0.21
2024-02-19T04:47:03.736Z,0.24
2024-02-19T04:49:32.190Z,0.28
2024-02-19T04:52:01.459Z,0.26
2024-02-19T04:54:29.912Z,0.23
2024-02-19T04:56:58.348Z,0.24
2024-02-19T04:59:26.892Z,0.22
2024-02-19T05:01:56.707Z,0.18
2024-02-19T05:04:25.975Z,0.17
2024-02-19T05:06:57.470Z,0.22
2024-02-19T05:09:25.718Z,0.25
2024-02-19T05:11:54.035Z,0.28
2024-02-19T05:14:22.636Z,0.32
2024-02-19T05:16:50.952Z,0.44
2024-02-19T05:19:19.474Z,0.79
2024-02-19T05:21:48.904Z,0.88
2024-02-19T05:24:18.967Z,0.76
2024-02-19T05:26:47.647Z,0.93
2024-02-19T05:29:16.045Z,1.15
2024-02-19T05:31:44.505Z,1.18
2024-02-19T05:34:12.927Z,1.13
2024-02-19T05:36:41.427Z,1.11
2024-02-19T05:39:12.204Z,1.09
2024-02-19T05:41:41.143Z,1.07
2024-02-19T05:44:11.112Z,1.03
2024-02-19T05:46:39.634Z,0.99
2024-02-19T05:49:08.146Z,0.92
2024-02-19T05:51:36.845Z,0.87
2024-02-19T05:54:05.959Z,0.86
2024-02-19T05:56:34.869Z,0.86
2024-02-19T05:59:03.408Z,0.84
2024-02-19T06:01:31.993Z,0.83
2024-02-19T06:04:00.519Z,0.80
2024-02-19T06:06:28.815Z,0.76
2024-02-19T06:08:57.344Z,0.72
2024-02-19T06:11:26.912Z,0.67
2024-02-19T06:13:55.688Z,0.59
2024-02-19T06:16:24.558Z,0.48
2024-02-19T06:18:53.811Z,0.53
2024-02-19T06:21:23.438Z,0.55
2024-02-19T06:23:52.242Z,0.56
2024-02-19T06:26:20.664Z,0.56
2024-02-19T06:28:48.927Z,0.60
2024-02-19T06:31:17.719Z,0.59
2024-02-19T06:33:46.373Z,0.59
2024-02-19T06:36:15.001Z,0.54
2024-02-19T06:38:43.320Z,0.50
2024-02-19T06:41:11.630Z,0.49
2024-02-19T06:43:40.056Z,0.52
2024-02-19T06:46:10.406Z,0.58
2024-02-19T06:48:39.247Z,0.65
2024-02-19T06:51:07.684Z,0.60
2024-02-19T06:53:36.144Z,0.64
2024-02-19T06:56:04.782Z,0.66
2024-02-19T06:58:33.166Z,0.68
2024-02-19T07:01:03.376Z,0.67
2024-02-19T07:03:31.877Z,0.71
2024-02-19T07:06:00.294Z,0.75
2024-02-19T07:08:28.586Z,0.66
2024-02-19T07:10:56.906Z,0.74
2024-02-19T07:13:25.690Z,0.86
2024-02-19T07:15:54.156Z,0.93
2024-02-19T07:18:23.260Z,0.93
2024-02-19T07:20:51.699Z,0.98
2024-02-19T07:23:20.047Z,0.89
2024-02-19T07:25:48.339Z,0.94
2024-02-19T07:28:16.597Z,0.88
2024-02-19T07:30:45.014Z,0.93
2024-02-19T07:33:13.394Z,0.96
2024-02-19T07:35:41.837Z,1.00
2024-02-19T07:38:10.290Z,1.06
2024-02-19T07:40:39.160Z,1.10
2024-02-19T07:43:07.697Z,0.97
2024-02-19T07:45:36.364Z,1.05
2024-02-19T07:48:07.573Z,1.13
2024-02-19T07:50:36.570Z,1.18
2024-02-19T07:53:05.099Z,1.20
2024-02-19T07:55:33.575Z,1.23
2024-02-19T07:58:02.024Z,1.16
2024-02-19T08:00:30.425Z,0.98
2024-02-19T08:02:58.895Z,0.90
2024-02-19T08:05:27.300Z,1.09
2024-02-19T08:07:55.696Z,1.11
2024-02-19T08:10:24.336Z,1.15
2024-02-19T08:12:52.995Z,1.20
2024-02-19T08:15:21.574Z,1.28
2024-02-19T08:17:50.139Z,1.42
2024-02-19T08:20:18.696Z,1.53
2024-02-19T08:22:47.468Z,1.65
2024-02-19T08:25:17.047Z,1.70
2024-02-19T08:27:45.585Z,1.76
2024-02-19T08:30:14.706Z,1.75
2024-02-19T08:32:43.169Z,1.52
2024-02-19T08:35:11.726Z,1.51
2024-02-19T08:37:40.374Z,1.62
2024-02-19T08:40:09.536Z,1.72
2024-02-19T08:42:38.940Z,1.75
2024-02-19T08:45:07.934Z,1.82
2024-02-19T08:47:37.990Z,1.91
2024-02-19T08:50:06.907Z,1.94
2024-02-19T08:52:35.463Z,2.11
2024-02-19T08:55:04.125Z,2.31
2024-02-19T08:57:32.561Z,2.52
2024-02-19T09:00:00.922Z,2.78
2024-02-19T09:02:29.342Z,3.08
2024-02-19T09:04:57.795Z,3.23
2024-02-19T09:07:26.215Z,3.05
2024-02-19T09:09:55.150Z,3.46
2024-02-19T09:12:24.754Z,4.23
2024-02-19T09:14:53.666Z,4.71
2024-02-19T09:17:23.960Z,4.51
2024-02-19T09:19:52.706Z,4.61
2024-02-19T09:22:21.781Z,4.74
2024-02-19T09:24:51.764Z,4.65
2024-02-19T09:27:20.258Z,4.91
2024-02-19T09:29:48.980Z,5.74
2024-02-19T09:32:17.279Z,6.21
2024-02-19T09:34:45.865Z,6.60
2024-02-19T09:37:14.534Z,7.10
2024-02-19T09:39:44.026Z,7.17
2024-02-19T09:42:12.494Z,7.62
2024-02-19T09:44:40.947Z,8.52
2024-02-19T09:47:09.784Z,9.35
2024-02-19T09:49:38.756Z,9.74
2024-02-19T09:52:10.793Z,9.98
2024-02-19T09:54:39.241Z,10.66
2024-02-19T09:57:11.900Z,11.29
2024-02-19T09:59:43.473Z,12.09
2024-02-19T10:02:19.994Z,12.13
2024-02-19T10:04:49.655Z,13.06
2024-02-19T10:07:21.836Z,13.13
2024-02-19T10:09:51.096Z,13.58
2024-02-19T10:12:20.771Z,14.11
2024-02-19T10:14:49.347Z,14.87
2024-02-19T10:17:22.948Z,15.20
2024-02-19T10:20:07.820Z,15.65
2024-02-19T10:22:36.488Z,16.30
2024-02-19T10:25:08.892Z,16.75
2024-02-19T10:27:39.198Z,16.75
2024-02-19T10:30:14.197Z,17.09
2024-02-19T10:32:42.832Z,17.19
2024-02-19T10:35:11.480Z,17.30
2024-02-19T10:37:39.958Z,17.40
2024-02-19T10:40:10.263Z,17.51
2024-02-19T10:42:39.744Z,17.61
2024-02-19T10:45:10.184Z,17.88
2024-02-19T10:47:39.865Z,17.96
2024-02-19T10:50:09.619Z,18.12
2024-02-19T10:52:43.151Z,18.33
2024-02-19T10:55:19.920Z,18.08
2024-02-19T10:57:54.886Z,17.98
2024-02-19T11:00:26.787Z,17.68
2024-02-19T11:03:09.287Z,17.17
2024-02-19T11:05:45.880Z,16.82
2024-02-19T11:08:21.411Z,16.60
2024-02-19T11:10:54.426Z,15.98
2024-02-19T11:13:28.261Z,15.91
2024-02-19T11:15:57.080Z,15.80
2024-02-19T11:18:25.633Z,15.24
2024-02-19T11:20:54.060Z,15.14
2024-02-19T11:23:22.383Z,14.84
2024-02-19T11:25:50.945Z,14.16
2024-02-19T11:28:19.248Z,13.92
2024-02-19T11:30:48.180Z,13.56
2024-02-19T11:33:16.798Z,13.19
2024-02-19T11:35:45.461Z,12.67
2024-02-19T11:38:14.080Z,11.93
2024-02-19T11:40:43.621Z,11.56
2024-02-19T11:43:12.780Z,10.84
2024-02-19T11:45:41.494Z,10.31
2024-02-19T11:48:10.599Z,10.01
2024-02-19T11:50:41.266Z,9.69
2024-02-19T11:53:11.879Z,9.45
2024-02-19T11:55:41.122Z,9.35
2024-02-19T11:58:10.607Z,9.02
2024-02-19T12:00:39.282Z,8.88
2024-02-19T12:03:07.657Z,8.53
2024-02-19T12:05:36.202Z,8.47
2024-02-19T12:08:05.440Z,8.30
2024-02-19T12:10:33.944Z,8.21
2024-02-19T12:13:02.440Z,8.17
2024-02-19T12:15:30.849Z,8.05
2024-02-19T12:17:59.507Z,8.00
2024-02-19T12:20:27.903Z,7.88
2024-02-19T12:22:56.288Z,7.76
2024-02-19T12:25:27.070Z,7.70
2024-02-19T12:27:55.734Z,7.70
2024-02-19T12:30:24.607Z,7.60
2024-02-19T12:32:56.190Z,7.38
2024-02-19T12:35:24.809Z,7.18
2024-02-19T12:37:53.457Z,6.95
2024-02-19T12:40:22.111Z,6.99
2024-02-19T12:42:50.631Z,6.98
2024-02-19T12:45:19.074Z,6.91
2024-02-19T12:47:47.563Z,6.77
2024-02-19T12:50:17.333Z,6.69
2024-02-19T12:52:46.060Z,6.56
2024-02-19T12:55:17.741Z,6.51
2024-02-19T12:57:47.870Z,6.47
2024-02-19T13:00:16.606Z,6.54
2024-02-19T13:02:45.521Z,6.49
2024-02-19T13:05:14.085Z,6.47
2024-02-19T13:07:43.726Z,6.40
2024-02-19T13:10:12.072Z,6.34
2024-02-19T13:12:40.634Z,6.35
2024-02-19T13:15:09.441Z,6.34
2024-02-19T13:17:43.139Z,6.32
2024-02-19T13:20:16.608Z,6.32
2024-02-19T13:22:45.386Z,6.33
2024-02-19T13:25:13.944Z,6.40
2024-02-19T13:27:42.517Z,6.39
2024-02-19T13:30:11.952Z,6.35
2024-02-19T13:32:40.598Z,6.41
2024-02-19T13:35:12.695Z,6.45
2024-02-19T13:37:42.746Z,6.40
2024-02-19T13:40:12.436Z,6.40
2024-02-19T13:42:41.840Z,6.44
2024-02-19T13:45:10.751Z,6.47
2024-02-19T13:47:40.748Z,6.48
2024-02-19T13:50:12.506Z,6.46
2024-02-19T13:52:41.170Z,6.52
2024-02-19T13:55:10.006Z,6.52
2024-02-19T13:57:38.614Z,6.46
2024-02-19T14:00:08.061Z,6.34
2024-02-19T14:02:36.813Z,6.30
2024-02-19T14:05:05.688Z,6.31
2024-02-19T14:07:34.303Z,6.15
2024-02-19T14:10:03.046Z,5.94
2024-02-19T14:12:31.409Z,5.82
2024-02-19T14:15:00.668Z,5.73
2024-02-19T14:17:30.179Z,5.68
2024-02-19T14:20:00.277Z,5.70
2024-02-19T14:22:28.955Z,5.71
2024-02-19T14:24:57.494Z,5.73
2024-02-19T14:27:25.931Z,5.70
2024-02-19T14:29:55.151Z,5.60
2024-02-19T14:32:23.528Z,5.53
2024-02-19T14:34:52.951Z,5.47
2024-02-19T14:37:21.581Z,5.36
2024-02-19T14:39:51.481Z,5.24
2024-02-19T14:42:21.256Z,5.10
2024-02-19T14:44:49.670Z,4.93
2024-02-19T14:47:18.075Z,4.81
2024-02-19T14:49:46.494Z,4.69
2024-02-19T14:52:14.808Z,4.57
2024-02-19T14:54:43.147Z,4.46
2024-02-19T14:57:11.708Z,4.34
2024-02-19T14:59:41.659Z,4.26
2024-02-19T15:02:10.494Z,4.17
2024-02-19T15:04:38.908Z,4.07
2024-02-19T15:07:07.681Z,3.99
2024-02-19T15:09:36.395Z,3.85
2024-02-19T15:12:05.048Z,3.79
2024-02-19T15:14:34.219Z,3.70
2024-02-19T15:17:03.614Z,3.59
2024-02-19T15:19:32.120Z,3.50
2024-02-19T15:22:00.570Z,3.42
2024-02-19T15:24:29.145Z,3.30
2024-02-19T15:26:57.472Z,3.21
2024-02-19T15:29:27.293Z,3.11
2024-02-19T15:31:55.688Z,3.04
2024-02-19T15:34:24.382Z,2.93
2024-02-19T15:36:52.784Z,2.79
2024-02-19T15:39:21.442Z,2.71
2024-02-19T15:41:50.735Z,2.62
2024-02-19T15:44:19.061Z,2.48
2024-02-19T15:46:47.431Z,2.39
2024-02-19T15:49:15.783Z,2.31
2024-02-19T15:51:44.056Z,2.22
2024-02-19T15:54:12.581Z,2.12
2024-02-19T15:56:40.846Z,2.02
2024-02-19T15:59:09.469Z,1.90
2024-02-19T16:01:37.957Z,1.81
2024-02-19T16:04:06.391Z,1.72
2024-02-19T16:06:36.712Z,1.64
2024-02-19T16:09:06.732Z,1.54
2024-02-19T16:11:35.069Z,1.43
2024-02-19T16:14:04.643Z,1.34
2024-02-19T16:16:33.508Z,1.23
2024-02-19T16:19:05.005Z,1.12
2024-02-19T16:21:33.499Z,1.00
2024-02-19T16:24:01.784Z,0.89
2024-02-19T16:26:30.375Z,0.78
2024-02-19T16:28:59.251Z,0.68
2024-02-19T16:31:27.607Z,0.58
2024-02-19T16:33:56.039Z,0.48
2024-02-19T16:36:27.572Z,0.40
2024-02-19T16:38:56.328Z,0.29
2024-02-19T16:41:24.740Z,0.18
2024-02-19T16:43:53.382Z,0.05
2024-02-19T16:46:24.866Z,-0.07
2024-02-19T16:48:53.445Z,-0.17
2024-02-19T16:51:22.429Z,-0.24
2024-02-19T16:53:55.216Z,-0.30
2024-02-19T16:56:28.058Z,-0.38
2024-02-19T16:58:57.099Z,-0.47
2024-02-19T17:01:25.595Z,-0.57
2024-02-19T17:03:54.267Z,-0.65
2024-02-19T17:06:24.500Z,-0.72
2024-02-19T17:08:53.019Z,-0.77
2024-02-19T17:11:22.890Z,-0.79
2024-02-19T17:13:51.725Z,-0.82
2024-02-19T17:16:20.585Z,-0.85
2024-02-19T17:18:49.452Z,-0.90
2024-02-19T17:21:17.824Z,-0.97
2024-02-19T17:23:48.162Z,-1.04
2024-02-19T17:26:18.495Z,-1.10
2024-02-19T17:28:46.974Z,-1.17
2024-02-19T17:31:15.421Z,-1.24
2024-02-19T17:33:43.764Z,-1.33
2024-02-19T17:36:12.225Z,-1.40
2024-02-19T17:38:40.463Z,-1.45
2024-02-19T17:41:08.862Z,-1.51
2024-02-19T17:43:37.179Z,-1.57
2024-02-19T17:46:06.166Z,-1.64
2024-02-19T17:48:36.921Z,-1.72
2024-02-19T17:51:05.832Z,-1.78
2024-02-19T17:53:34.151Z,-1.82
2024-02-19T17:56:02.373Z,-1.82
2024-02-19T17:58:30.679Z,-1.79
2024-02-19T18:01:01.895Z,-1.78
2024-02-19T18:03:30.480Z,-1.79
2024-02-19T18:06:00.111Z,-1.81
2024-02-19T18:08:28.993Z,-1.83
2024-02-19T18:10:59.018Z,-1.88
2024-02-19T18:13:27.857Z,-1.94
2024-02-19T18:15:56.593Z,-2.02
2024-02-19T18:18:25.323Z,-2.08
2024-02-19T18:20:54.369Z,-2.15
2024-02-19T18:23:24.551Z,-2.22
2024-02-19T18:25:53.069Z,-2.31
2024-02-19T18:28:22.382Z,-2.40
2024-02-19T18:30:50.920Z,-2.50
2024-02-19T18:33:19.378Z,-2.55
2024-02-19T18:35:48.434Z,-2.58
2024-02-19T18:38:19.011Z,-2.58
2024-02-19T18:40:47.610Z,-2.58
2024-02-19T18:43:16.381Z,-2.54
2024-02-19T18:45:44.980Z,-2.50
2024-02-19T18:48:14.704Z,-2.52
2024-02-19T18:50:43.401Z,-2.52
2024-02-19T18:53:11.912Z,-2.54
2024-02-19T18:55:41.487Z,-2.57
2024-02-19T18:58:09.912Z,-2.63
2024-02-19T19:00:38.696Z,-2.69
2024-02-19T19:03:07.306Z,-2.75
2024-02-19T19:05:35.902Z,-2.82
2024-02-19T19:08:05.076Z,-2.90
2024-02-19T19:10:33.841Z,-2.98
2024-02-19T19:13:02.510Z,-3.02
2024-02-19T19:15:30.998Z,-3.04
2024-02-19T19:18:02.483Z,-3.04
2024-02-19T19:20:35.165Z,-3.02
2024-02-19T19:23:03.821Z,-3.03
2024-02-19T19:25:32.572Z,-3.05
2024-02-19T19:28:01.377Z,-3.08
2024-02-19T19:30:29.924Z,-3.11
2024-02-19T19:32:59.745Z,-3.14
2024-02-19T19:35:29.075Z,-3.19
2024-02-19T19:37:58.308Z,-3.24
2024-02-19T19:40:26.770Z,-3.29
2024-02-19T19:42:55.441Z,-3.34
2024-02-19T19:45:24.937Z,-3.38
2024-02-19T19:47:53.686Z,-3.39
2024-02-19T19:50:21.945Z,-3.39
2024-02-19T19:52:50.485Z,-3.38
2024-02-19T19:55:19.260Z,-3.36
2024-02-19T19:57:59.702Z,-3.31
2024-02-19T20:00:28.596Z,-3.25
2024-02-19T20:02:58.404Z,-3.22
2024-02-19T20:05:26.998Z,-3.21
2024-02-19T20:07:55.395Z,-3.22
2024-02-19T20:10:23.813Z,-3.23
2024-02-19T20:12:52.614Z,-3.25
2024-02-19T20:15:20.933Z,-3.31
2024-02-19T20:17:49.576Z,-3.38
2024-02-19T20:20:18.329Z,-3.47
2024-02-19T20:22:46.670Z,-3.57
2024-02-19T20:25:17.095Z,-3.65
2024-02-19T20:27:45.597Z,-3.70
2024-02-19T20:30:13.954Z,-3.70
2024-02-19T20:32:42.231Z,-3.67
2024-02-19T20:35:10.835Z,-3.65
2024-02-19T20:37:40.568Z,-3.62
2024-02-19T20:40:09.816Z,-3.62
2024-02-19T20:42:38.272Z,-3.62
2024-02-19T20:45:07.258Z,-3.60
2024-02-19T20:47:37.114Z,-3.61
2024-02-19T20:50:06.341Z,-3.63
2024-02-19T20:52:35.459Z,-3.64
2024-02-19T20:55:06.119Z,-3.68
2024-02-19T20:57:39.084Z,-3.67
2024-02-19T21:00:08.066Z,-3.64
2024-02-19T21:02:42.005Z,-3.59
2024-02-19T21:05:14.070Z,-3.47
2024-02-19T21:07:45.676Z,-3.35
2024-02-19T21:10:14.567Z,-3.20
2024-02-19T21:12:43.639Z,-3.07
2024-02-19T21:15:11.908Z,-2.97
2024-02-19T21:17:40.196Z,-2.90
2024-02-19T21:20:11.139Z,-2.86
2024-02-19T21:22:39.807Z,-2.87
2024-02-19T21:25:09.161Z,-2.91
2024-02-19T21:27:37.917Z,-2.97
2024-02-19T21:30:07.811Z,-3.04
2024-02-19T21:32:36.889Z,-3.13
2024-02-19T21:35:08.220Z,-3.23
2024-02-19T21:37:36.669Z,-3.33
2024-02-19T21:40:05.965Z,-3.41
2024-02-19T21:42:37.172Z,-3.46
2024-02-19T21:45:07.478Z,-3.47
2024-02-19T21:47:37.644Z,-3.47
2024-02-19T21:50:09.698Z,-3.46
2024-02-19T21:52:38.803Z,-3.41
2024-02-19T21:55:08.394Z,-3.39
2024-02-19T21:57:37.194Z,-3.38
2024-02-19T22:00:13.166Z,-3.38
2024-02-19T22:02:41.659Z,-3.39
2024-02-19T22:05:10.037Z,-3.44
2024-02-19T22:07:40.250Z,-3.49
2024-02-19T22:10:10.448Z,-3.55
2024-02-19T22:12:38.848Z,-3.62
2024-02-19T22:15:07.974Z,-3.69
2024-02-19T22:17:37.168Z,-3.73
2024-02-19T22:20:06.043Z,-3.72
2024-02-19T22:22:36.004Z,-3.70
2024-02-19T22:25:05.389Z,-3.67
2024-02-19T22:27:33.792Z,-3.64
2024-02-19T22:30:02.444Z,-3.62
2024-02-19T22:32:33.100Z,-3.60
2024-02-19T22:35:01.790Z,-3.60
2024-02-19T22:37:31.463Z,-3.62
2024-02-19T22:39:59.988Z,-3.65
2024-02-19T22:42:28.897Z,-3.69
2024-02-19T22:44:59.286Z,-3.74
2024-02-19T22:47:29.132Z,-3.79
2024-02-19T22:49:57.704Z,-3.81
2024-02-19T22:52:25.984Z,-3.80
2024-02-19T22:54:54.402Z,-3.74
2024-02-19T22:57:22.673Z,-3.65
2024-02-19T22:59:51.235Z,-3.57
2024-02-19T23:02:19.596Z,-3.49
2024-02-19T23:04:48.660Z,-3.39
2024-02-19T23:07:17.305Z,-3.30
2024-02-19T23:09:45.790Z,-3.21
2024-02-19T23:12:14.136Z,-3.16
2024-02-19T23:14:42.476Z,-3.13
2024-02-19T23:17:11.103Z,-3.11
2024-02-19T23:19:39.698Z,-3.07
2024-02-19T23:22:08.839Z,-3.03
2024-02-19T23:24:37.302Z,-2.97
2024-02-19T23:27:05.789Z,-2.87
2024-02-19T23:29:34.721Z,-2.77
2024-02-19T23:32:03.202Z,-2.64
2024-02-19T23:34:31.863Z,-2.51
2024-02-19T23:37:01.034Z,-2.40
2024-02-19T23:39:29.366Z,-2.34
2024-02-19T23:41:57.837Z,-2.28
2024-02-19T23:44:27.803Z,-2.24
2024-02-19T23:46:56.228Z,-2.21
2024-02-19T23:49:25.012Z,-2.16
2024-02-19T23:51:53.457Z,-2.14
2024-02-19T23:54:21.935Z,-2.13
2024-02-19T23:56:50.773Z,-2.08
2024-02-19T23:59:19.112Z,-2.02
